Time;durP1;ratioP1;P1;durP2;ratioP2;P2;SDS_P1;SDS_P2;PMS_P1;PMS_P2;Temp;Humidity;BMP_temperature;BMP_pressure;BME280_temperature;BME280_humidity;BME280_pressure;Samples;Min_cycle;Max_cycle;Signal;HPM_P1;HPM_P2
2022/06/20 00:01:24;;;;;;;17.47;10.57;;;26.60;60.10;;;;;;5085923;28;20895;-75
2022/06/20 00:03:51;;;;;;;17.13;11.73;;;26.50;60.40;;;;;;5079053;28;20466;-74
2022/06/20 00:06:20;;;;;;;17.97;10.87;;;26.30;61.00;;;;;;5087587;28;20914;-73
2022/06/20 00:08:47;;;;;;;15.93;10.10;;;26.10;61.60;;;;;;5079748;28;20454;-74
2022/06/20 00:11:27;;;;;;;18.70;11.23;;;26.00;62.20;;;;;;5088371;28;20428;-74
2022/06/20 00:13:55;;;;;;;15.60;10.37;;;25.90;62.30;;;;;;5079851;28;20420;-74
2022/06/20 00:16:22;;;;;;;24.27;11.07;;;25.80;62.60;;;;;;5086445;28;20448;-73
2022/06/20 00:18:49;;;;;;;22.87;11.50;;;25.80;63.50;;;;;;5083359;28;20842;-73
2022/06/20 00:21:19;;;;;;;23.47;10.37;;;25.80;63.80;;;;;;5092482;28;20425;-73
2022/06/20 00:23:45;;;;;;;18.03;11.83;;;25.80;63.40;;;;;;5091712;28;20449;-73
2022/06/20 00:26:11;;;;;;;24.50;11.03;;;25.70;63.50;;;;;;5092364;28;20424;-75
2022/06/20 00:28:37;;;;;;;21.20;10.83;;;25.60;64.80;;;;;;5094973;28;20678;-72
2022/06/20 00:31:04;;;;;;;21.60;11.03;;;25.60;65.10;;;;;;5084994;28;20447;-72
2022/06/20 00:33:30;;;;;;;15.47;10.47;;;25.60;65.40;;;;;;5082167;28;20722;-74
2022/06/20 00:35:57;;;;;;;24.70;11.03;;;25.60;65.80;;;;;;5085726;28;20432;-72
2022/06/20 00:38:23;;;;;;;17.67;10.80;;;25.60;65.40;;;;;;5088809;28;20210;-73
2022/06/20 00:40:53;;;;;;;18.33;10.20;;;25.70;65.30;;;;;;5084232;28;20460;-72
2022/06/20 00:43:31;;;;;;;17.33;10.73;;;25.70;65.10;;;;;;5084815;28;20417;-72
2022/06/20 00:46:03;;;;;;;18.83;11.50;;;25.70;65.40;;;;;;5081689;28;20429;-71
2022/06/20 00:48:52;;;;;;;19.40;10.53;;;25.60;64.10;;;;;;5088189;28;20953;-72
2022/06/20 00:51:41;;;;;;;17.43;10.10;;;25.40;65.10;;;;;;5082339;28;20488;-71
2022/06/20 00:54:41;;;;;;;15.00;10.10;;;25.20;65.60;;;;;;5086471;28;20447;-72
2022/06/20 00:57:28;;;;;;;15.20;10.63;;;25.10;66.00;;;;;;5083542;28;20808;-73
2022/06/20 01:00:18;;;;;;;19.10;11.63;;;25.00;66.40;;;;;;5088119;28;20538;-73
2022/06/20 01:02:49;;;;;;;18.93;10.90;;;25.00;66.60;;;;;;5086566;28;20506;-73
2022/06/20 01:05:24;;;;;;;22.60;10.87;;;25.00;66.90;;;;;;5084943;28;20927;-72
2022/06/20 01:08:18;;;;;;;23.40;12.03;;;25.00;67.20;;;;;;5082694;28;20430;-72
2022/06/20 01:10:59;;;;;;;20.27;12.40;;;25.00;68.00;;;;;;5080578;28;20560;-72
2022/06/20 01:13:26;;;;;;;22.57;13.07;;;25.20;71.80;;;;;;5080495;28;20448;-73
2022/06/20 01:16:20;;;;;;;21.10;11.47;;;25.20;73.50;;;;;;5085881;28;20453;-72
2022/06/20 01:18:48;;;;;;;23.87;12.00;;;25.00;75.70;;;;;;5076187;28;20477;-71
2022/06/20 01:21:32;;;;;;;22.83;13.10;;;25.00;75.70;;;;;;5087643;28;20506;-72
2022/06/20 01:24:21;;;;;;;22.33;12.57;;;24.80;75.90;;;;;;5080653;28;20414;-72
2022/06/20 01:26:53;;;;;;;29.27;14.53;;;24.50;79.00;;;;;;5088535;28;20446;-71
2022/06/20 01:29:19;;;;;;;36.93;13.73;;;24.20;81.20;;;;;;5085453;28;20459;-73
2022/06/20 01:31:53;;;;;;;23.07;12.53;;;24.00;82.10;;;;;;5090823;28;20416;-70
2022/06/20 01:34:19;;;;;;;27.50;13.10;;;23.80;82.70;;;;;;5089653;28;20176;-71
2022/06/20 01:39:38;;;;;;;23.10;13.67;;;23.80;84.90;;;;;;5080162;28;20498;-73
2022/06/20 01:42:20;;;;;;;28.13;13.30;;;23.60;84.00;;;;;;5084682;28;20423;-73
2022/06/20 01:44:52;;;;;;;24.40;12.63;;;23.40;84.10;;;;;;5086788;28;20552;-72
2022/06/20 01:47:18;;;;;;;25.23;13.40;;;23.40;85.50;;;;;;5085816;28;20467;-71
2022/06/20 01:49:47;;;;;;;26.23;13.20;;;23.30;85.70;;;;;;5087956;28;20510;-73
2022/06/20 01:52:40;;;;;;;22.83;13.00;;;23.30;86.90;;;;;;5082921;28;20189;-73
2022/06/20 01:55:12;;;;;;;24.77;12.20;;;23.20;86.90;;;;;;5086693;28;20409;-72
2022/06/20 01:57:42;;;;;;;23.87;11.60;;;23.20;86.30;;;;;;5086595;28;20482;-73
2022/06/20 02:00:15;;;;;;;18.50;11.30;;;23.10;85.90;;;;;;5090026;28;20549;-72
2022/06/20 02:02:48;;;;;;;22.73;11.50;;;23.00;85.90;;;;;;5086756;28;20897;-72
2022/06/20 02:05:18;;;;;;;24.90;12.17;;;23.00;86.20;;;;;;5091177;28;20528;-72
2022/06/20 02:07:45;;;;;;;20.90;10.53;;;23.00;86.20;;;;;;5086068;28;20456;-72
2022/06/20 02:10:13;;;;;;;18.67;11.60;;;22.90;86.00;;;;;;5086444;28;20477;-72
2022/06/20 02:12:39;;;;;;;22.23;13.30;;;22.90;86.20;;;;;;5084620;28;20591;-74
2022/06/20 02:15:06;;;;;;;21.97;12.07;;;22.80;86.80;;;;;;5077274;28;20538;-73
2022/06/20 02:17:34;;;;;;;23.97;12.83;;;22.80;87.30;;;;;;5087824;28;20210;-72
2022/06/20 02:20:03;;;;;;;22.20;11.43;;;22.90;87.40;;;;;;5086234;28;20554;-73
2022/06/20 02:22:31;;;;;;;19.27;10.87;;;23.00;86.60;;;;;;5082703;28;20468;-73
2022/06/20 02:25:03;;;;;;;23.73;12.77;;;23.00;86.30;;;;;;5089178;28;20414;-73
2022/06/20 02:27:35;;;;;;;17.00;10.30;;;23.10;86.00;;;;;;5088300;28;20415;-72
2022/06/20 02:30:02;;;;;;;24.37;11.97;;;23.00;85.30;;;;;;5078513;28;20466;-73
2022/06/20 02:32:35;;;;;;;16.40;10.33;;;23.00;85.30;;;;;;5090545;28;20422;-72
2022/06/20 02:35:04;;;;;;;28.97;13.30;;;23.00;85.30;;;;;;5084930;28;20421;-73
2022/06/20 02:37:30;;;;;;;26.30;12.00;;;23.00;85.60;;;;;;5089239;28;20474;-73
2022/06/20 02:40:02;;;;;;;21.63;12.40;;;23.00;85.60;;;;;;5081374;28;20477;-72
2022/06/20 02:42:54;;;;;;;23.50;12.33;;;23.10;86.00;;;;;;5087737;28;20181;-72
2022/06/20 02:45:22;;;;;;;20.23;12.80;;;23.10;85.30;;;;;;5091338;28;20414;-72
2022/06/20 02:47:50;;;;;;;26.60;12.63;;;22.90;87.00;;;;;;5083380;28;20434;-73
2022/06/20 02:50:21;;;;;;;26.63;13.60;;;22.80;87.30;;;;;;5088438;28;20458;-73
2022/06/20 02:52:53;;;;;;;30.13;13.83;;;22.80;88.10;;;;;;5089144;28;20785;-74
2022/06/20 02:55:21;;;;;;;21.23;12.60;;;22.70;89.20;;;;;;5092754;28;20510;-74
2022/06/20 02:57:51;;;;;;;25.57;13.00;;;22.70;90.30;;;;;;5083036;28;20470;-72
2022/06/20 03:00:45;;;;;;;23.90;12.70;;;22.70;89.90;;;;;;5087736;28;20454;-72
2022/06/20 03:03:23;;;;;;;20.10;12.00;;;22.50;89.00;;;;;;5078383;28;20435;-73
2022/06/20 03:05:49;;;;;;;20.80;12.97;;;22.50;90.30;;;;;;5085011;28;20423;-73
2022/06/20 03:08:16;;;;;;;26.37;13.23;;;22.60;90.70;;;;;;5078434;28;20432;-72
2022/06/20 03:10:45;;;;;;;24.83;12.57;;;22.60;90.30;;;;;;5083214;28;20230;-71
2022/06/20 03:13:12;;;;;;;25.43;13.37;;;22.60;89.00;;;;;;5089833;28;20784;-72
2022/06/20 03:15:43;;;;;;;22.33;12.90;;;22.50;88.40;;;;;;5087474;28;20455;-74
2022/06/20 03:18:14;;;;;;;24.80;12.33;;;22.60;89.00;;;;;;5085186;28;20480;-73
2022/06/20 03:20:41;;;;;;;23.10;13.20;;;22.60;89.60;;;;;;5085000;28;20554;-74
2022/06/20 03:23:18;;;;;;;27.73;12.10;;;22.70;89.70;;;;;;5084010;28;20427;-74
2022/06/20 03:25:44;;;;;;;27.47;13.30;;;22.80;88.70;;;;;;5080287;28;20451;-71
2022/06/20 03:28:17;;;;;;;22.90;10.97;;;22.70;88.40;;;;;;5088736;28;20529;-72
2022/06/20 03:30:43;;;;;;;21.60;11.90;;;22.80;89.20;;;;;;5080194;28;20478;-73
2022/06/20 03:33:16;;;;;;;28.40;12.13;;;22.70;88.70;;;;;;5089005;28;20781;-72
2022/06/20 03:36:07;;;;;;;25.53;12.40;;;22.70;88.10;;;;;;5082803;28;20194;-73
2022/06/20 03:38:35;;;;;;;25.40;12.80;;;22.70;89.30;;;;;;5085290;28;20525;-72
2022/06/20 03:41:03;;;;;;;21.30;11.87;;;22.60;88.60;;;;;;5081842;28;20438;-72
2022/06/20 03:43:30;;;;;;;29.83;13.67;;;22.40;89.70;;;;;;5087393;28;20904;-73
2022/06/20 03:45:59;;;;;;;27.07;12.07;;;22.40;89.60;;;;;;5085524;28;20920;-73
2022/06/20 03:48:42;;;;;;;22.10;11.60;;;22.30;85.60;;;;;;5087250;28;20427;-73
2022/06/20 03:51:31;;;;;;;23.40;12.90;;;22.30;86.80;;;;;;5083603;28;20457;-75
2022/06/20 03:54:00;;;;;;;29.00;12.90;;;22.00;86.00;;;;;;5081329;28;20425;-72
2022/06/20 03:56:29;;;;;;;25.73;13.60;;;21.90;85.70;;;;;;5087788;28;20420;-72
2022/06/20 03:59:04;;;;;;;34.87;12.83;;;22.00;87.80;;;;;;5079045;28;20496;-72
2022/06/20 04:01:36;;;;;;;24.23;12.40;;;22.00;88.40;;;;;;5092673;28;20430;-77
2022/06/20 04:04:20;;;;;;;22.73;12.40;;;21.90;87.30;;;;;;5080674;28;20429;-74
2022/06/20 04:07:14;;;;;;;29.33;12.33;;;21.70;85.60;;;;;;5084918;28;20425;-73
2022/06/20 04:12:42;;;;;;;19.97;11.60;;;21.70;87.40;;;;;;5080696;28;20419;-74
2022/06/20 04:15:14;;;;;;;25.10;12.43;;;21.70;86.90;;;;;;5092118;28;20455;-76
2022/06/20 04:18:29;;;;;;;25.10;12.40;;;21.80;85.50;;;;;;5081707;28;20471;-75
2022/06/20 04:20:58;;;;;;;27.97;12.60;;;21.50;86.90;;;;;;5084729;28;20887;-73
2022/06/20 04:23:36;;;;;;;23.77;12.43;;;21.30;88.10;;;;;;5094577;28;20897;-76
2022/06/20 04:26:12;;;;;;;23.03;11.20;;;21.10;88.70;;;;;;5085853;28;20439;-73
2022/06/20 04:28:59;;;;;;;26.50;12.13;;;21.10;87.70;;;;;;5087786;28;20428;-74
2022/06/20 04:31:41;;;;;;;20.20;12.40;;;21.00;88.00;;;;;;5085648;28;20453;-73
2022/06/20 04:34:35;;;;;;;24.30;13.03;;;20.90;88.60;;;;;;5087925;28;20461;-73
2022/06/20 04:37:17;;;;;;;19.90;11.50;;;21.00;89.70;;;;;;5075845;28;20567;-74
2022/06/20 04:39:50;;;;;;;27.70;11.07;;;20.90;89.20;;;;;;5080233;28;20464;-73
2022/06/20 04:42:21;;;;;;;20.03;11.50;;;20.90;88.40;;;;;;5082810;28;20416;-71
2022/06/20 04:45:01;;;;;;;20.70;12.40;;;21.00;90.10;;;;;;5082664;28;20978;-74
2022/06/20 04:47:35;;;;;;;22.47;11.83;;;21.10;90.70;;;;;;5082086;28;20437;-73
2022/06/20 04:50:01;;;;;;;25.83;11.63;;;21.20;90.30;;;;;;5083125;28;20455;-71
2022/06/20 04:52:30;;;;;;;23.13;12.30;;;21.30;90.20;;;;;;5095870;28;20420;-73
2022/06/20 04:54:58;;;;;;;24.63;12.97;;;21.30;90.30;;;;;;5088325;28;20416;-72
2022/06/20 04:57:26;;;;;;;27.07;12.20;;;21.40;89.70;;;;;;5096944;28;20411;-73
2022/06/20 04:59:56;;;;;;;31.77;14.03;;;21.50;90.40;;;;;;5091067;28;20456;-74
2022/06/20 05:02:23;;;;;;;22.30;12.40;;;21.60;90.50;;;;;;5091162;28;20613;-74
2022/06/20 05:04:53;;;;;;;22.67;12.13;;;21.60;89.90;;;;;;5081439;28;20428;-72
2022/06/20 05:07:34;;;;;;;22.87;11.47;;;21.50;90.10;;;;;;5089501;28;20499;-74
2022/06/20 05:10:21;;;;;;;19.87;11.37;;;21.50;90.00;;;;;;5083236;28;21024;-72
2022/06/20 05:12:58;;;;;;;20.23;11.93;;;21.40;88.00;;;;;;5087368;28;20416;-74
2022/06/20 05:15:38;;;;;;;28.53;12.70;;;21.50;88.90;;;;;;5088516;28;20457;-72
2022/06/20 05:18:24;;;;;;;22.90;12.23;;;21.50;89.50;;;;;;5087425;28;20466;-74
2022/06/20 05:20:56;;;;;;;19.73;11.20;;;21.50;89.00;;;;;;5083869;28;20485;-72
2022/06/20 05:23:34;;;;;;;19.00;11.20;;;21.60;88.10;;;;;;5090849;28;20525;-73
2022/06/20 05:26:02;;;;;;;17.33;11.93;;;21.60;87.10;;;;;;5100539;28;20423;-72
2022/06/20 05:28:32;;;;;;;22.13;11.90;;;21.70;86.60;;;;;;5100522;28;20576;-72
2022/06/20 05:30:59;;;;;;;18.67;10.90;;;21.60;86.00;;;;;;5097652;28;20452;-72
2022/06/20 05:33:48;;;;;;;20.60;10.80;;;21.70;86.90;;;;;;5096301;28;20437;-72
2022/06/20 05:36:26;;;;;;;19.20;12.37;;;21.80;87.10;;;;;;5097349;28;20447;-74
2022/06/20 05:38:57;;;;;;;26.80;12.60;;;21.80;88.60;;;;;;5082705;28;20471;-72
2022/06/20 05:41:23;;;;;;;24.63;11.63;;;21.90;89.70;;;;;;5074433;28;20980;-73
2022/06/20 05:43:49;;;;;;;22.83;11.90;;;21.90;86.80;;;;;;5076504;28;20420;-73
2022/06/20 05:46:25;;;;;;;19.03;11.20;;;21.80;86.60;;;;;;5076648;28;20201;-72
2022/06/20 05:49:00;;;;;;;17.43;11.00;;;21.80;86.80;;;;;;5081773;28;20238;-71
2022/06/20 05:51:27;;;;;;;20.63;10.70;;;21.90;86.80;;;;;;5073816;28;20416;-72
2022/06/20 05:54:04;;;;;;;17.57;10.07;;;21.80;86.60;;;;;;5090036;28;20425;-73
2022/06/20 05:56:58;;;;;;;28.37;11.10;;;21.80;87.00;;;;;;5078196;28;20417;-72
2022/06/20 05:59:27;;;;;;;20.13;10.93;;;21.70;86.90;;;;;;5076607;28;20842;-72
2022/06/20 06:01:58;;;;;;;17.90;11.30;;;21.70;87.10;;;;;;5081706;28;20435;-71
2022/06/20 06:04:38;;;;;;;18.57;11.70;;;21.80;88.00;;;;;;5081003;28;20514;-72
2022/06/20 06:07:13;;;;;;;26.43;10.37;;;22.00;88.40;;;;;;5083374;28;20474;-72
2022/06/20 06:09:58;;;;;;;22.20;11.00;;;22.10;88.60;;;;;;5088592;28;20470;-73
2022/06/20 06:12:38;;;;;;;26.23;12.53;;;21.90;86.00;;;;;;5089911;28;20762;-73
2022/06/20 06:15:20;;;;;;;21.00;11.20;;;21.70;86.30;;;;;;5086998;28;20432;-72
2022/06/20 06:17:57;;;;;;;22.27;10.60;;;21.90;86.60;;;;;;5091160;28;20487;-72
2022/06/20 06:20:26;;;;;;;19.63;10.67;;;22.10;86.20;;;;;;5090301;28;20456;-74
2022/06/20 06:22:56;;;;;;;27.67;12.40;;;22.20;84.70;;;;;;5093985;28;20470;-73
2022/06/20 06:25:35;;;;;;;21.90;11.63;;;22.30;85.90;;;;;;5079693;28;20988;-72
2022/06/20 06:28:28;;;;;;;22.80;11.30;;;22.30;87.40;;;;;;5083267;28;20463;-71
2022/06/20 06:30:59;;;;;;;22.70;11.83;;;22.30;85.50;;;;;;5084934;28;21095;-72
2022/06/20 06:33:34;;;;;;;21.77;11.00;;;22.40;84.90;;;;;;5089366;28;20855;-71
2022/06/20 06:36:21;;;;;;;19.03;10.70;;;22.50;84.60;;;;;;5088528;28;20509;-73
2022/06/20 06:39:13;;;;;;;18.07;10.60;;;22.50;83.10;;;;;;5087082;28;20464;-73
2022/06/20 06:41:45;;;;;;;16.57;10.70;;;22.40;84.70;;;;;;5084612;28;21040;-71
2022/06/20 06:44:24;;;;;;;20.10;10.90;;;22.50;84.90;;;;;;5094942;28;20413;-72
2022/06/20 06:46:53;;;;;;;16.53;11.33;;;22.70;85.30;;;;;;5091138;28;20423;-72
2022/06/20 06:49:28;;;;;;;27.00;12.20;;;22.80;84.40;;;;;;5082935;28;20520;-72
2022/06/20 06:52:26;;;;;;;22.73;12.20;;;22.90;83.70;;;;;;5087049;28;20813;-72
2022/06/20 06:55:16;;;;;;;22.13;11.93;;;23.00;84.40;;;;;;5084955;28;20421;-72
2022/06/20 06:57:51;;;;;;;25.73;12.97;;;23.10;83.80;;;;;;5084333;28;20476;-73
2022/06/20 07:00:21;;;;;;;21.00;12.53;;;23.10;83.70;;;;;;5088084;28;20494;-72
2022/06/20 07:02:56;;;;;;;23.97;13.43;;;23.00;84.10;;;;;;5086755;28;20414;-72
2022/06/20 07:05:31;;;;;;;24.87;13.03;;;22.90;84.60;;;;;;5086111;28;20410;-72
2022/06/20 07:08:00;;;;;;;25.17;13.50;;;22.90;85.30;;;;;;5088677;28;20416;-72
2022/06/20 07:10:38;;;;;;;19.40;11.90;;;22.90;84.70;;;;;;5082904;28;20825;-72
2022/06/20 07:13:22;;;;;;;18.70;13.10;;;23.00;84.60;;;;;;5078050;28;20450;-72
2022/06/20 07:15:53;;;;;;;27.00;15.33;;;23.10;84.10;;;;;;5081976;28;20438;-72
2022/06/20 07:18:42;;;;;;;21.80;13.20;;;23.10;84.70;;;;;;5089475;28;20573;-72
2022/06/20 07:21:15;;;;;;;27.00;13.20;;;23.10;84.90;;;;;;5084263;28;20435;-73
2022/06/20 07:23:43;;;;;;;24.67;14.50;;;23.20;84.90;;;;;;5083467;28;20435;-73
2022/06/20 07:26:13;;;;;;;30.60;13.57;;;23.20;84.10;;;;;;5077790;28;20425;-73
2022/06/20 07:28:48;;;;;;;23.03;10.07;;;23.20;83.60;;;;;;5083141;28;21022;-73
2022/06/20 07:31:14;;;;;;;18.80;10.50;;;23.20;76.80;;;;;;5084917;28;20436;-73
2022/06/20 07:33:48;;;;;;;15.30;10.40;;;23.20;76.10;;;;;;5082538;28;20442;-72
2022/06/20 07:36:19;;;;;;;20.97;11.50;;;23.10;77.10;;;;;;5091492;28;20426;-72
2022/06/20 07:39:01;;;;;;;18.27;11.33;;;23.10;76.80;;;;;;5083719;28;20460;-75
2022/06/20 07:41:40;;;;;;;21.97;9.73;;;23.20;75.90;;;;;;5083244;28;20429;-73
2022/06/20 07:44:23;;;;;;;18.60;11.50;;;23.30;75.90;;;;;;5082971;28;20447;-73
2022/06/20 07:47:01;;;;;;;28.63;14.83;;;23.40;75.50;;;;;;5085232;28;20506;-74
2022/06/20 07:49:37;;;;;;;20.40;11.90;;;23.60;75.80;;;;;;5082390;28;20462;-72
2022/06/20 07:52:17;;;;;;;20.37;10.60;;;23.80;75.10;;;;;;5086636;28;20435;-74
2022/06/20 07:54:51;;;;;;;20.60;10.37;;;24.00;75.50;;;;;;5085614;28;20412;-72
2022/06/20 07:57:22;;;;;;;16.83;9.80;;;24.10;74.90;;;;;;5086058;28;20935;-73
2022/06/20 08:00:05;;;;;;;20.30;11.03;;;24.20;74.90;;;;;;5085423;28;20495;-74
2022/06/20 08:02:38;;;;;;;17.27;10.30;;;24.30;74.60;;;;;;5086637;28;20415;-73
2022/06/20 08:05:06;;;;;;;22.20;10.60;;;24.40;73.70;;;;;;5088425;28;20430;-73
2022/06/20 08:07:44;;;;;;;18.70;10.77;;;24.20;73.70;;;;;;5090862;28;20420;-73
2022/06/20 08:10:34;;;;;;;18.77;10.63;;;24.50;73.20;;;;;;5103760;28;20459;-72
2022/06/20 08:13:25;;;;;;;21.57;11.67;;;24.50;73.20;;;;;;5073476;28;20448;-73
2022/06/20 08:16:14;;;;;;;23.37;11.87;;;24.50;72.60;;;;;;5099327;28;20987;-72
2022/06/20 08:18:40;;;;;;;25.00;10.07;;;24.60;70.80;;;;;;5104668;28;20452;-73
2022/06/20 08:21:27;;;;;;;19.10;9.17;;;24.70;69.50;;;;;;5095419;28;20438;-72
2022/06/20 08:23:59;;;;;;;16.67;10.20;;;24.90;67.90;;;;;;5082876;28;20624;-73
2022/06/20 08:26:34;;;;;;;17.17;9.13;;;25.00;67.90;;;;;;5076786;28;20427;-71
2022/06/20 08:29:07;;;;;;;17.80;9.00;;;25.20;67.00;;;;;;5081359;28;20443;-72
2022/06/20 08:31:37;;;;;;;15.30;8.90;;;25.20;65.70;;;;;;5084650;28;20503;-73
2022/06/20 08:34:16;;;;;;;18.53;9.53;;;25.10;66.00;;;;;;5098069;28;20422;-72
2022/06/20 08:37:00;;;;;;;18.33;9.70;;;24.80;66.70;;;;;;5088283;28;20452;-72
2022/06/20 08:39:42;;;;;;;20.43;10.07;;;24.80;67.20;;;;;;5077834;28;20845;-74
2022/06/20 08:42:39;;;;;;;15.93;9.33;;;24.60;67.30;;;;;;5088501;28;20422;-72
2022/06/20 08:45:27;;;;;;;17.77;9.00;;;24.80;67.50;;;;;;5087222;28;20926;-72
2022/06/20 08:48:21;;;;;;;17.40;9.90;;;24.80;67.70;;;;;;5082230;28;20438;-71
2022/06/20 08:51:32;;;;;;;15.97;10.00;;;25.00;67.00;;;;;;5068482;28;20812;-72
2022/06/20 08:54:26;;;;;;;13.97;9.47;;;24.90;67.50;;;;;;5082892;28;20429;-73
2022/06/20 08:57:03;;;;;;;15.90;10.20;;;25.10;67.20;;;;;;5083204;28;20426;-73
2022/06/20 09:00:00;;;;;;;17.70;9.43;;;25.20;66.70;;;;;;5077780;28;20568;-72
2022/06/20 09:02:44;;;;;;;13.13;9.47;;;25.40;66.10;;;;;;5077838;28;20411;-72
2022/06/20 09:05:22;;;;;;;19.93;11.23;;;25.40;66.00;;;;;;5080275;28;20431;-73
2022/06/20 09:08:17;;;;;;;17.70;11.13;;;25.50;66.10;;;;;;5080419;28;20905;-72
2022/06/20 09:11:05;;;;;;;17.37;10.40;;;25.60;65.30;;;;;;5081278;28;20475;-72
2022/06/20 09:13:58;;;;;;;17.60;9.37;;;25.50;65.80;;;;;;5077728;28;20430;-71
2022/06/20 09:16:24;;;;;;;14.40;10.10;;;25.70;66.00;;;;;;5084537;28;20443;-73
2022/06/20 09:19:10;;;;;;;17.77;10.13;;;25.90;64.70;;;;;;5083856;28;20554;-72
2022/06/20 09:21:55;;;;;;;17.67;9.80;;;25.90;64.70;;;;;;5084866;28;20221;-74
2022/06/20 09:24:23;;;;;;;14.60;10.23;;;26.00;64.40;;;;;;5084757;28;20406;-72
2022/06/20 09:27:05;;;;;;;19.40;9.63;;;25.80;64.50;;;;;;5081499;28;20410;-72
2022/06/20 09:29:55;;;;;;;18.17;9.80;;;26.00;64.80;;;;;;5093332;28;20462;-72
2022/06/20 09:32:27;;;;;;;17.07;9.93;;;26.20;63.90;;;;;;5083216;28;20439;-72
2022/06/20 09:35:23;;;;;;;15.80;9.37;;;26.20;64.20;;;;;;5100188;28;20476;-72
2022/06/20 09:38:03;;;;;;;16.47;10.13;;;26.50;63.50;;;;;;5087264;28;20464;-76
2022/06/20 09:40:35;;;;;;;15.57;9.90;;;26.50;63.20;;;;;;5085211;28;20465;-73
2022/06/20 09:43:31;;;;;;;18.10;10.40;;;26.60;62.50;;;;;;5079243;28;20427;-73
2022/06/20 09:45:57;;;;;;;17.00;11.20;;;26.90;61.90;;;;;;5079163;28;20825;-73
2022/06/20 09:48:47;;;;;;;16.10;10.83;;;27.20;60.30;;;;;;5082269;28;20503;-73
2022/06/20 09:51:23;;;;;;;19.07;11.43;;;27.20;60.10;;;;;;5076061;28;20202;-72
2022/06/20 09:53:48;;;;;;;18.57;11.20;;;27.40;60.10;;;;;;5080890;28;20453;-73
2022/06/20 09:56:21;;;;;;;15.10;8.90;;;27.70;59.50;;;;;;5076385;28;20456;-74
2022/06/20 09:59:07;;;;;;;16.67;9.27;;;27.50;59.30;;;;;;5078868;28;20234;-75
2022/06/20 10:02:04;;;;;;;15.23;9.83;;;27.10;60.10;;;;;;5102447;28;20435;-74
2022/06/20 10:04:53;;;;;;;16.47;9.77;;;27.20;60.10;;;;;;5084149;28;20482;-72
2022/06/20 10:07:36;;;;;;;25.53;9.83;;;27.20;59.90;;;;;;5095297;28;20870;-72
2022/06/20 10:10:15;;;;;;;19.37;9.27;;;27.10;60.90;;;;;;5086374;28;20986;-73
2022/06/20 10:12:46;;;;;;;15.90;9.10;;;27.20;60.10;;;;;;5082650;28;20509;-72
2022/06/20 10:15:39;;;;;;;16.20;10.40;;;27.20;60.40;;;;;;5083359;28;20515;-74
2022/06/20 10:18:35;;;;;;;18.80;9.50;;;27.10;60.10;;;;;;5084682;28;20467;-73
2022/06/20 10:21:07;;;;;;;17.93;9.73;;;26.80;61.00;;;;;;5059589;28;20467;-73
2022/06/20 10:23:42;;;;;;;18.03;8.90;;;27.20;60.00;;;;;;5080086;28;20417;-74
2022/06/20 10:26:31;;;;;;;13.63;8.90;;;26.90;61.00;;;;;;5083950;28;20980;-72
2022/06/20 10:29:22;;;;;;;19.97;9.60;;;27.30;60.30;;;;;;5079244;28;20813;-73
2022/06/20 10:32:13;;;;;;;16.33;9.83;;;27.40;59.90;;;;;;5088293;28;20426;-73
2022/06/20 10:34:53;;;;;;;21.77;10.27;;;27.60;59.90;;;;;;5086280;28;20539;-72
2022/06/20 10:37:30;;;;;;;18.20;9.23;;;27.90;59.10;;;;;;5079146;28;20444;-72
2022/06/20 10:40:22;;;;;;;23.63;10.10;;;27.70;58.90;;;;;;5085842;28;20460;-73
2022/06/20 10:43:09;;;;;;;14.63;9.20;;;27.80;58.00;;;;;;5074012;28;20933;-75
2022/06/20 10:46:25;;;;;;;18.13;9.50;;;27.70;58.50;;;;;;5082623;28;20406;-73
2022/06/20 10:48:53;;;;;;;19.30;8.93;;;27.10;60.30;;;;;;5028109;28;20929;-74
2022/06/20 10:51:56;;;;;;;12.70;8.53;;;26.70;61.70;;;;;;5030139;28;20430;-73
2022/06/20 10:54:29;;;;;;;16.83;7.17;;;26.90;61.60;;;;;;5004651;28;20435;-73
2022/06/20 10:57:12;;;;;;;11.87;5.87;;;27.30;56.50;;;;;;5029589;28;20443;-73
2022/06/20 10:59:54;;;;;;;9.17;5.73;;;27.70;53.80;;;;;;5021242;28;20991;-71
2022/06/20 11:02:34;;;;;;;11.53;7.50;;;28.00;54.20;;;;;;5030540;28;20413;-70
2022/06/20 11:05:20;;;;;;;11.80;7.60;;;28.10;55.20;;;;;;5030501;28;20573;-74
2022/06/20 11:08:07;;;;;;;13.10;7.63;;;28.50;54.90;;;;;;5029294;28;20439;-72
2022/06/20 11:10:40;;;;;;;14.03;7.10;;;29.00;52.60;;;;;;5030991;28;20982;-72
2022/06/20 11:13:26;;;;;;;14.30;7.70;;;28.20;53.60;;;;;;5034488;28;20477;-73
2022/06/20 11:16:32;;;;;;;15.80;8.70;;;27.40;56.40;;;;;;5028696;28;20482;-71
2022/06/20 11:19:25;;;;;;;13.17;7.43;;;27.50;57.60;;;;;;4934072;28;20508;-73
2022/06/20 11:22:01;;;;;;;16.23;6.60;;;27.70;55.70;;;;;;4948694;29;20434;-71
2022/06/20 11:24:56;;;;;;;18.23;8.30;;;27.60;54.50;;;;;;4987446;28;20423;-73
2022/06/20 11:27:49;;;;;;;17.23;8.33;;;27.20;58.00;;;;;;4999917;28;20420;-74
2022/06/20 11:30:50;;;;;;;10.10;7.63;;;27.40;58.10;;;;;;5007658;28;21237;-74
2022/06/20 11:36:16;;;;;;;16.80;8.83;;;26.90;58.90;;;;;;5006620;28;20415;-73
2022/06/20 11:39:18;;;;;;;16.87;10.10;;;26.30;61.30;;;;;;5007785;28;20474;-74
2022/06/20 11:41:56;;;;;;;14.80;8.40;;;26.10;62.00;;;;;;5007222;28;20836;-73
2022/06/20 11:44:30;;;;;;;17.70;9.50;;;25.80;62.20;;;;;;5008197;28;20437;-73
2022/06/20 11:47:05;;;;;;;14.60;9.13;;;25.60;63.70;;;;;;5012299;28;20487;-74
2022/06/20 11:49:57;;;;;;;17.20;9.17;;;25.80;63.40;;;;;;5051046;28;20517;-72
2022/06/20 11:52:29;;;;;;;17.57;8.77;;;25.90;62.90;;;;;;5096376;28;20422;-73
2022/06/20 11:55:13;;;;;;;18.47;9.77;;;26.00;63.10;;;;;;5096145;28;20428;-73
2022/06/20 11:58:00;;;;;;;20.17;10.33;;;26.50;61.90;;;;;;5086942;28;20420;-72
2022/06/20 12:00:36;;;;;;;18.50;8.23;;;26.00;63.40;;;;;;5082615;28;20481;-73
2022/06/20 12:03:13;;;;;;;17.20;8.83;;;26.20;61.70;;;;;;5089686;28;20481;-71
2022/06/20 12:06:22;;;;;;;18.90;9.13;;;26.20;62.50;;;;;;5089564;28;20434;-71
2022/06/20 12:08:57;;;;;;;14.60;9.73;;;26.60;61.50;;;;;;5074290;28;20431;-73
2022/06/20 12:11:48;;;;;;;12.23;7.57;;;26.30;61.00;;;;;;5077210;28;20412;-72
2022/06/20 12:14:31;;;;;;;17.43;7.77;;;26.50;60.60;;;;;;5090793;28;20424;-72
2022/06/20 12:17:08;;;;;;;11.80;7.63;;;26.50;59.60;;;;;;5084128;28;20427;-73
2022/06/20 12:25:43;;;;;;;9.87;6.50;;;26.70;59.60;;;;;;5081002;28;20453;-73
2022/06/20 12:28:45;;;;;;;14.10;5.03;;;26.80;59.30;;;;;;5089537;28;20428;-74
2022/06/20 12:31:17;;;;;;;9.17;4.60;;;26.50;57.30;;;;;;5010135;28;20446;-74
2022/06/20 12:33:53;;;;;;;10.40;5.10;;;26.40;57.80;;;;;;5009900;28;20432;-72
2022/06/20 12:36:26;;;;;;;11.10;6.20;;;26.30;58.70;;;;;;5009352;28;20428;-73
2022/06/20 12:39:00;;;;;;;10.70;7.20;;;25.90;61.20;;;;;;5006988;28;21192;-73
2022/06/20 12:41:30;;;;;;;11.87;8.13;;;26.40;61.50;;;;;;4990490;28;20439;-72
2022/06/20 12:44:17;;;;;;;12.73;7.87;;;26.80;62.20;;;;;;5007895;28;20430;-74
2022/06/20 12:46:57;;;;;;;13.03;8.80;;;27.30;60.30;;;;;;5003693;28;20946;-72
2022/06/20 12:49:39;;;;;;;11.93;7.80;;;26.90;60.00;;;;;;5006773;28;20972;-72
2022/06/20 12:52:22;;;;;;;25.40;9.13;;;25.90;63.20;;;;;;4988649;28;20523;-72
2022/06/20 12:54:50;;;;;;;14.57;8.63;;;25.60;64.20;;;;;;4986871;28;20462;-72
2022/06/20 12:57:40;;;;;;;14.63;8.60;;;25.10;66.40;;;;;;5007790;28;20434;-73
2022/06/20 13:00:33;;;;;;;15.03;8.60;;;24.80;67.30;;;;;;4981395;28;20468;-74
2022/06/20 13:03:18;;;;;;;12.00;8.83;;;24.50;68.00;;;;;;5005623;28;20785;-72
2022/06/20 13:05:46;;;;;;;16.90;9.73;;;24.50;68.20;;;;;;5010596;28;20499;-73
2022/06/20 13:08:23;;;;;;;17.63;9.10;;;24.20;68.90;;;;;;5063495;28;20414;-73
2022/06/20 13:11:09;;;;;;;16.27;9.57;;;24.50;67.90;;;;;;5082427;28;20795;-72
2022/06/20 13:14:03;;;;;;;12.57;9.23;;;24.30;68.50;;;;;;5081041;28;20419;-71
2022/06/20 13:16:58;;;;;;;17.40;8.77;;;24.80;67.30;;;;;;5088238;28;20454;-73
2022/06/20 13:19:33;;;;;;;17.90;9.60;;;25.10;66.60;;;;;;5057707;28;20492;-73
2022/06/20 13:22:03;;;;;;;22.40;10.80;;;25.30;66.30;;;;;;5091150;28;20906;-72
2022/06/20 13:24:39;;;;;;;15.60;9.50;;;24.70;67.50;;;;;;5096026;28;20497;-71
2022/06/20 13:27:15;;;;;;;14.80;9.70;;;24.50;68.30;;;;;;5096811;28;20437;-74
2022/06/20 13:30:02;;;;;;;14.87;9.90;;;24.50;69.10;;;;;;5093003;28;20506;-74
2022/06/20 13:32:37;;;;;;;25.53;10.07;;;24.50;68.80;;;;;;5090967;28;20900;-72
2022/06/20 13:35:06;;;;;;;10.40;8.87;;;24.40;69.20;;;;;;5101094;28;20435;-75
2022/06/20 13:37:54;;;;;;;13.73;9.53;;;24.30;70.10;;;;;;5096605;28;20451;-72
2022/06/20 13:40:55;;;;;;;17.73;9.33;;;24.40;69.40;;;;;;5096129;28;20537;-72